El Dorado International Airport

SKBO · Cundinamarca, 哥伦比亚

罗盘
风向 的 风向 280° El Dorado International Airport 13L/31R
风: 3 kt, 1 beaufort

3 kt

1 kt
改变
0 2.000 4.000 6.000 8.000 10.000
FEW 1.500 ft
SCT 2.000 ft
BKN 7.000 ft
METAR SKBO 080600Z 28003KT 9999 FEW015 SCT020 BKN070 11/10 Q1026 NOSIG RMK A3029

METAR El Dorado International Airport - SKBO/BOG

El Dorado International Airport是,哥伦比亚中的大型机场。 该机场有2条跑道: 13L/31R 和 13R/31L. 该领域的国际民航组织标志是SKBO 它的国际航空运输协会代码是BOG.

这份报告是针对2022年12月8日 01:00, 当地时间在El Dorado International Airport进行的。

机场观察

风向为280°,速度为3 kt。

可见度为10 km 或者更多。

有几云在1.500 ft的高度, 疏云,零星散落的云朵在2.000 ft的高度 和 碎云在7.000 ft的高度。 破损或更高的上限为7.000 ft。

温度和风寒是11 °C。 露点为10 °C,相对湿度为94%。 海平面上的气压为1026 hPa (QNH)。

白天

今天,太阳从05:52升起,在17:44降落。 这适用于El Dorado International Airport,世界夏令时可能有所不同。 当地时间与世界标准时间之间的时差为-5 小时。 当前,没有夏令时有效。

公司介绍

我们没有关于这个机场的公司信息。

体会

到Vliegles.nl去找飞行课程,跳伞和其他飞行体验。 浏览页面,了解El Dorado International Airport附近所有可用的活动。 你也可以使用搜索功能来寻找你所在地附近的特定飞行课程、跳伞或其他飞行体验。

跑道

Id 标题 侧风 逆风 侧风 %
13L/31R 127°-307° 1 kt 3 kt 45 %
13R/31L 127°-307° 1 kt 3 kt 45 %

逆风成分最大的方向会被突出显示,并用于横风计算。 这并不一定意味着这个方向在使用。

乌云

1.500 ft FEW 几云
2.000 ft SCT 疏云,零星散落的云朵
7.000 ft BKN 碎云

温度 & 天气

温度 11 °C
露点 10 °C
相对湿度 94%
Kp-index 0 (0-9)

评论

A3029

白天

日出
05:52 (4:41)
中午
11:48
日落
17:44

小工具

你想在你的网站上有一个关于El Dorado International Airport的当前航空天气(METAR)的小部件吗?

显示HTML代码

我们和第三方通过cookies跟踪您在我们网站上的互联网行为。如果你继续,我们认为你同意我们的饼干政策